Hewanorra, St. Lucia

9:59 PM AST on August 27, 2015 (GMT -0400)
Hewanorra International | | Change Station
CLOSE
Current Station
Airport
Location: Hewanorra,
Elevation: 10 ft
Nearby Weather Stations

Elev 10 ft 13.75 °N, 60.95 °W | Updated 6 hours ago

Rain
Rain
83 °F
Feels Like 91 °F
N
17
Wind Variable Wind from ESE
Gusts 22 mph

Today
High -- | Low -- °F
--% Chance of Precip.
Yesterday
High -- | Low -- °F
Precip. -- in
5:51 AM 6:18 PM
Waxing Gibbous, 96% visible
Pressure 29.89 in
Visibility 6.2 miles
Clouds Scattered Clouds 8000 ft
Overcast 27000 ft
Heat Index 91 °F
Dew Point 77 °F
Humidity 82%
Rainfall 0.00 in
Snow Depth Not available.
UV 3 out of 12
Pollen Not available.
Air Quality Not available.
Flu Activity Not available.
METAR TLPL 271900Z 15013KT 9999 SCT080 OVC270 30/25 Q1012 NOSIG
Pressure 29.89 in
Visibility 6.2 miles
Clouds Scattered Clouds 8000 ft
Overcast 27000 ft
Heat Index 91 °F
Dew Point 77 °F
Humidity 82%
Rainfall 0.00 in
Snow Depth Not available.
UV 3 out of 12
Pollen Not available.
Air Quality Not available.
Flu Activity Not available.
METAR TLPL 271900Z 15013KT 9999 SCT080 OVC270 30/25 Q1012 NOSIG

10-Day Weather Forecast

×

Almanac

Astronomy

Aug. 27, 2015 Rise Set
Actual Time
Civil Twilight
Nautical Twilight
Astronomical Twilight
Moon
Length of Visible Light
Length of Day
Tomorrow will be .
, % of the Moon is Illuminated

Today's Extremes

Country Highs Country Lows

Community

WunderPhotos

Upload Photos

1,850,296 photos uploaded!

WunderBlogs® & News

Nearby

Air Quality

  Air Quality AQ Index Pollutant
Not available.

Snow Depth

Station Depth Elevation

Earthquake Activity

City Distance Mag. Time & Date
Minimum magnitude displayed is 2.5.

Coastal Water Temperatures

Place Temperature

Stations

Nearby Weather Stations

Station Location Temp. Windchill Dew Point Humidity Wind Precip. Elev Updated Type